Aeroporto :
LOGIN :

Iscrizione | Disclaimer

   EN    FR    IT 

 










Sommario :    VFR   VFR Marginale   IFR   IFR Intensivo   IFR Molto Intensivo
Visibilità : 
Base nubi : 
>= 8 km
>= 3000ft
5 / 8 km
1000 / 3000 ft
1500m / 5 km
500 / 1000 ft
800 / 1500m
200 / 500 ft
< 800m
< 200 ft
Simboli :   Temporali  Nebbia  Neve Forte  Precipitazioni Forti  Vento > 20 kt
SIGMETs :   Varie  Temporali  Ghiacco  Turbolenza  Onda orograficha  Ceneri Vulcaniche






- Altitudine del aeroporto : 1512 ft
- Codice IATA : GHA


DAUG - Noumerate - Ghardaia

ULTIMO METAR :
  • 151800Z 07014KT 6000 SCT046 38/10 Q1012

METARs OBSOLETI :
  • 151700Z 08013KT 6000 NSC 40/10 Q1012
  • 151600Z 12005KT 6000 NSC 41/06 Q1012

TAF TAF DAUG
Valido dal 15 a 18 ore il 16 a 18 ore UTC


151700Z 1518/1618 08012KT 6000 NSC
PROB30
TEMPO 1518/1522 10015G30KT 0800 BLSA FEW030CB
BECMG 1603/1606 04012KT



MetMap, La meteo Aeronautica in un colpo d'occhio ! - Copyright ORBIFLY Dicembre 2007 - Disclaimer

ORBIFLY MET'MAP TEAM :

Programmazione e sviluppo : Alexandra Zaïnal
Concezione : Baudouin d'Aumeries
Aiuto per la programmazione : Marc-Olivier Méhu
Supporto tecnico e logistico : Manuel Goepfert
Aiuto per la traduzione : Arnaldo La Scala

Contatto : metmap@orbifly.com




FONTI E CREDITI :

   NOAA